Rockwood, ME

9:59 AM EST on February 28, 2015 (GMT -0500)
Tomhegan Twp | Change Station
CLOSE
Current Station
Personal Weather Station
Location: Rockwood, ME
Elevation: 1056 ft
Nearby Weather Stations

Elev 1056 ft 45.77 °N, 69.79 °W | Updated 9 seconds ago

Clear
Clear
17.3 °F
Feels Like 17 °F
N
2.0
Wind Variable Wind from WSW
Gusts 19.0 mph

Today
High -- | Low -- °F
--% Chance of Precip.
Yesterday
High -- | Low -- °F
Precip. -- in
6:19 AM 5:24 PM
Waxing Gibbous, 78% visible
Pressure 30.64 in
Visibility 10.0 miles
Clouds Clear
Windchill 17 °F
Dew Point 2 °F
Humidity 51%
Rainfall 0.00 in
Snow Depth Not available.
UV 3 out of 12
Pollen .10 out of 12
Air Quality Not available.
Flu Activity Not available.
METAR KMLT 281453Z AUTO 26008KT 10SM CLR M08/M19 A3060 RMK AO2 SLP375 T10781194 50009

More Conditions Fewer Conditions

Pressure 30.64 in
Visibility 10.0 miles
Clouds Clear
Windchill 17 °F
Dew Point 2 °F
Humidity 51%
Rainfall 0.00 in
Snow Depth Not available.
UV 3 out of 12
Pollen .10 out of 12
Air Quality Not available.
Flu Activity Not available.
METAR KMLT 281453Z AUTO 26008KT 10SM CLR M08/M19 A3060 RMK AO2 SLP375 T10781194 50009

More Conditions Fewer Conditions

10-Day Weather Forecast

Almanac

Astronomy

Feb. 28, 2015 Rise Set
Actual Time
Civil Twilight
Nautical Twilight
Astronomical Twilight
Moon
Length of Visible Light
Length of Day
Tomorrow will be .
, % of the Moon is Illuminated

Today's Extremes

State Highs State Lows

Community

WunderPhotos

Upload Photos

1,801,025 photos uploaded!

WunderBlogs® & News

Nearby

Air Quality

  Air Quality AQ Index Pollutant
Not available.

Snow Depth

Station Depth Elevation

Earthquake Activity

City Distance Mag. Time & Date
Minimum magnitude displayed is 2.5.

Coastal Water Temperatures

Place Temperature

Nearby Weather Stations